KCKV

Outlaw Field Airport

Clarksville, Tennessee, USA
KCKV 252320Z 2600/2624 33005KT P6SM BKN050 OVC100 FM261200 06004KT 6SM -SHRA BR SCT035 OVC070 FM261500 08005KT 5SM -SHRA BR BKN025 OVC060
Issued Valid From Valid To
Apr-25 @ 23:20 UTC
(5 hours ago)
Apr-26 @ 00:00 UTC
(4 hours ago)
Apr-27 @ 00:00 UTC
(in 20 hours)
Apr-26 @ 00:00 to Apr-26 @ 12:00
KCKV 252320Z 2600/2624 33005KT P6SM BKN050 OVC100
Wind Visibility Clouds
330° at 5 knots Greater than 6 miles
  • Broken at 5,000' AGL
  • Overcast at 10,000' AGL
From Apr-26 @ 12:00 to Apr-26 @ 15:00
FM261200 06004KT 6SM -SHRA BR SCT035 OVC070
Wind Visibility Clouds Conditions
60° at 4 knots 6 miles
  • Scattered at 3,500' AGL
  • Overcast at 7,000' AGL
  • Light Rain
  • Mist
From Apr-26 @ 15:00 to Apr-27 @ 00:00
FM261500 08005KT 5SM -SHRA BR BKN025 OVC060
Wind Visibility Clouds Conditions
80° at 5 knots 5 miles
  • Broken at 2,500' AGL
  • Overcast at 6,000' AGL
  • Light Rain
  • Mist
KCKV 252320Z 2600/2624 33005KT P6SM BKN050 OVC100 FM261200 06004KT 6SM -SHRA BR SCT035 OVC070 FM261500 08005KT 5SM -SHRA BR BKN025 OVC060
Issued Apr-25 @ 23:20 UTC
(5 hours ago)
Valid From Apr-26 @ 00:00 UTC
(4 hours ago)
Valid To Apr-27 @ 00:00 UTC
(in 20 hours)
Apr-26 @ 00:00 - Apr-26 @ 12:00
Wind Visibility
330° at 5 knots Greater than 6 miles
Clouds
  • Broken at 5,000' AGL
  • Overcast at 10,000' AGL
From Apr-26 @ 12:00 - Apr-26 @ 15:00
Wind Visibility
60° at 4 knots 6 miles
Clouds
  • Scattered at 3,500' AGL
  • Overcast at 7,000' AGL
Conditions
  • Light Rain
  • Mist
From Apr-26 @ 15:00 - Apr-27 @ 00:00
Wind Visibility
80° at 5 knots 5 miles
Clouds
  • Broken at 2,500' AGL
  • Overcast at 6,000' AGL
Conditions
  • Light Rain
  • Mist